Time;durP1;ratioP1;P1;durP2;ratioP2;P2;SDS_P1;SDS_P2;PMS_P1;PMS_P2;Temp;Humidity;BMP_temperature;BMP_pressure;BME280_temperature;BME280_humidity;BME280_pressure;Samples;Min_cycle;Max_cycle;Signal;HPM_P1;HPM_P2
2021/04/08 00:02:32;;;;;;;4.38;1.83;;;;;;;2.33;49.85;101859.66;8000389;28;20043;-65
2021/04/08 00:06:23;;;;;;;3.28;1.75;;;;;;;2.35;50.06;101863.09;8000294;28;20036;-66
2021/04/08 00:10:14;;;;;;;3.47;1.98;;;;;;;2.37;50.02;101863.94;7997992;28;20107;-65
2021/04/08 00:14:05;;;;;;;9.25;2.70;;;;;;;2.38;50.21;101863.03;7996316;28;20056;-64
2021/04/08 00:17:55;;;;;;;6.55;2.42;;;;;;;2.37;50.17;101872.56;7992728;28;20033;-64
2021/04/08 00:21:47;;;;;;;3.72;1.75;;;;;;;2.36;49.97;101873.47;7987399;28;20775;-64
2021/04/08 00:25:38;;;;;;;10.07;1.80;;;;;;;2.36;50.54;101878.66;7996019;28;20041;-64
2021/04/08 00:29:28;;;;;;;4.90;2.10;;;;;;;2.36;50.03;101880.38;7994704;28;20033;-65
2021/04/08 00:33:19;;;;;;;8.20;1.90;;;;;;;2.33;50.48;101877.81;8004708;28;20051;-65
2021/04/08 00:37:21;;;;;;;5.90;1.50;;;;;;;2.34;50.55;101877.81;8003420;28;20040;-65
2021/04/08 00:41:12;;;;;;;2.75;1.48;;;;;;;2.32;49.91;101876.13;8001249;28;20037;-64
2021/04/08 00:45:04;;;;;;;5.32;1.90;;;;;;;2.32;50.30;101883.91;8007048;28;20036;-65
2021/04/08 00:48:55;;;;;;;5.65;1.95;;;;;;;2.28;49.96;101890.88;8004474;28;20037;-65
2021/04/08 00:52:58;;;;;;;3.22;1.52;;;;;;;2.24;49.83;101886.63;7989662;28;20040;-66
2021/04/08 00:56:48;;;;;;;6.25;1.77;;;;;;;2.12;50.44;101879.03;7998709;28;20033;-65
2021/04/08 01:00:43;;;;;;;5.80;1.48;;;;;;;2.14;49.94;101884.19;7999841;28;20049;-65
2021/04/08 01:04:33;;;;;;;10.38;1.75;;;;;;;2.07;50.17;101877.38;8000544;28;20428;-66
2021/04/08 01:08:24;;;;;;;6.35;2.22;;;;;;;2.12;50.10;101892.00;7998997;28;20035;-64
2021/04/08 01:12:15;;;;;;;7.05;1.92;;;;;;;2.13;50.25;101895.41;7997090;28;20064;-65
2021/04/08 01:16:12;;;;;;;2.58;1.27;;;;;;;2.13;50.68;101898.00;7996436;28;20051;-66
2021/04/08 01:20:32;;;;;;;3.72;1.52;;;;;;;2.10;50.08;101901.50;8009222;28;20052;-64
2021/04/08 01:24:38;;;;;;;6.10;1.42;;;;;;;2.07;50.13;101901.56;8006081;28;20092;-65
2021/04/08 01:28:35;;;;;;;3.55;1.30;;;;;;;2.07;50.38;101908.47;8003834;28;20048;-65
2021/04/08 01:32:28;;;;;;;7.50;1.10;;;;;;;2.07;50.94;101911.06;8000667;28;20060;-66
2021/04/08 01:36:22;;;;;;;5.40;1.63;;;;;;;2.04;50.54;101903.34;8002800;28;20635;-66
2021/04/08 01:40:15;;;;;;;3.42;1.58;;;;;;;2.02;50.20;101907.69;8000918;28;20496;-66
2021/04/08 01:44:08;;;;;;;2.00;1.20;;;;;;;2.01;49.97;101909.41;7998483;28;20045;-66
2021/04/08 01:48:02;;;;;;;2.65;1.50;;;;;;;1.99;50.51;101910.31;7997081;28;20041;-65
2021/04/08 01:51:56;;;;;;;4.13;1.30;;;;;;;1.90;50.68;101896.63;7995498;28;20029;-66
2021/04/08 01:55:51;;;;;;;4.50;1.23;;;;;;;1.96;50.54;101911.22;7988609;28;20037;-64
2021/04/08 01:59:43;;;;;;;2.60;1.20;;;;;;;1.95;50.46;101910.38;8001839;28;20507;-66
2021/04/08 02:03:34;;;;;;;3.50;1.50;;;;;;;1.95;50.68;101907.78;8006541;28;20691;-65
2021/04/08 02:07:26;;;;;;;5.53;1.42;;;;;;;1.94;50.96;101908.66;8005967;28;20485;-65
2021/04/08 02:11:18;;;;;;;5.18;1.00;;;;;;;1.94;50.55;101907.78;8004440;28;20465;-65
2021/04/08 02:15:11;;;;;;;3.90;1.23;;;;;;;1.87;50.71;101896.63;7999043;28;20075;-65
2021/04/08 02:19:06;;;;;;;2.50;1.02;;;;;;;1.88;50.91;101913.06;8000767;28;20086;-64
2021/04/08 02:23:00;;;;;;;3.50;1.10;;;;;;;1.93;50.96;101926.81;7998804;28;20094;-64
2021/04/08 02:26:52;;;;;;;2.47;1.27;;;;;;;1.93;50.68;101912.13;7995181;28;20029;-65
2021/04/08 02:30:46;;;;;;;6.35;1.60;;;;;;;1.96;51.06;101913.81;7994359;28;20551;-64
2021/04/08 02:34:38;;;;;;;3.65;1.20;;;;;;;1.99;50.81;101912.91;7995203;28;20087;-65
2021/04/08 02:38:31;;;;;;;3.75;1.55;;;;;;;2.00;50.60;101910.28;7997948;28;20685;-65
2021/04/08 02:42:21;;;;;;;2.45;1.50;;;;;;;2.02;51.24;101905.09;8007008;28;20041;-65
2021/04/08 02:46:12;;;;;;;6.32;1.40;;;;;;;1.96;50.45;101906.03;8004748;28;20055;-65
2021/04/08 02:50:07;;;;;;;4.18;1.77;;;;;;;2.03;50.49;101917.19;8002396;28;20040;-65
2021/04/08 02:54:19;;;;;;;7.55;2.35;;;;;;;2.02;50.39;101924.09;8002029;28;20041;-64
2021/04/08 02:58:13;;;;;;;3.47;1.40;;;;;;;2.01;50.41;101924.97;8000373;28;20083;-66
2021/04/08 03:02:08;;;;;;;2.95;1.50;;;;;;;2.02;50.49;101931.00;7997680;28;20045;-66
2021/04/08 03:06:03;;;;;;;3.40;1.48;;;;;;;2.01;50.51;101929.28;7995726;28;20447;-65
2021/04/08 03:09:55;;;;;;;1.88;1.33;;;;;;;2.02;50.78;101923.25;7993665;28;20033;-65
2021/04/08 03:13:48;;;;;;;5.13;1.58;;;;;;;1.96;50.37;101911.22;7994093;28;20037;-65
2021/04/08 03:17:43;;;;;;;3.22;1.70;;;;;;;2.02;50.36;101918.91;7992727;28;20037;-66
2021/04/08 03:21:35;;;;;;;6.13;1.60;;;;;;;2.02;50.47;101925.81;8005230;28;20033;-66
2021/04/08 03:25:27;;;;;;;2.20;1.05;;;;;;;2.01;50.77;101931.88;7998211;28;20040;-65
2021/04/08 03:29:19;;;;;;;2.60;1.30;;;;;;;2.02;50.88;101939.66;8000937;28;20021;-65
2021/04/08 03:33:09;;;;;;;2.92;1.23;;;;;;;2.02;51.03;101938.78;7998876;28;20136;-65
2021/04/08 03:37:00;;;;;;;8.10;1.42;;;;;;;1.97;50.55;101934.53;7995438;28;20063;-65
2021/04/08 03:40:52;;;;;;;5.57;1.83;;;;;;;1.94;50.60;101928.53;7999013;28;20041;-65
2021/04/08 03:44:43;;;;;;;4.88;1.67;;;;;;;2.02;50.31;101947.41;7996780;28;20033;-65
2021/04/08 03:48:35;;;;;;;5.57;1.60;;;;;;;2.01;50.06;101935.34;7995703;28;20725;-64
2021/04/08 03:52:26;;;;;;;4.18;1.77;;;;;;;2.03;50.66;101936.19;7995098;28;20022;-65
2021/04/08 03:56:19;;;;;;;4.28;1.90;;;;;;;2.02;50.95;101941.38;7994522;28;20077;-65
2021/04/08 04:00:12;;;;;;;5.40;1.85;;;;;;;2.00;50.79;101936.19;7992087;28;20040;-64
2021/04/08 04:04:09;;;;;;;5.72;1.83;;;;;;;2.00;50.78;101941.38;7999639;28;20123;-65
2021/04/08 04:08:00;;;;;;;4.30;2.30;;;;;;;2.00;51.05;101945.75;8004246;28;20036;-64
2021/04/08 04:11:52;;;;;;;9.75;2.45;;;;;;;1.99;50.86;101933.66;8002093;28;20071;-65
2021/04/08 04:15:46;;;;;;;2.83;1.80;;;;;;;1.97;50.85;101931.06;8001884;28;20044;-63
2021/04/08 04:19:36;;;;;;;7.68;2.60;;;;;;;1.97;50.60;101944.03;8006670;28;20508;-66
2021/04/08 04:23:27;;;;;;;5.28;2.42;;;;;;;1.96;50.27;101945.75;8004778;28;20127;-64
2021/04/08 04:27:18;;;;;;;6.20;2.53;;;;;;;1.95;51.03;101949.25;8005363;28;20109;-65
2021/04/08 04:31:09;;;;;;;7.20;3.15;;;;;;;1.95;50.70;101941.47;8000576;28;20033;-65
2021/04/08 04:34:59;;;;;;;5.80;2.83;;;;;;;1.94;51.01;101959.63;8005241;28;20096;-65
2021/04/08 04:38:50;;;;;;;4.63;2.72;;;;;;;1.93;50.83;101951.00;7999578;28;20045;-65
2021/04/08 04:42:41;;;;;;;5.63;2.53;;;;;;;1.94;50.73;101957.91;7996935;28;20098;-65
2021/04/08 04:46:32;;;;;;;4.20;2.47;;;;;;;1.91;50.76;101952.75;7995014;28;20041;-64
2021/04/08 04:50:24;;;;;;;5.15;2.65;;;;;;;1.94;50.30;101955.31;8008824;28;20049;-65
2021/04/08 04:54:15;;;;;;;5.35;2.78;;;;;;;1.94;50.99;101947.53;8003612;28;20029;-65
2021/04/08 04:58:06;;;;;;;7.57;2.92;;;;;;;1.96;50.78;101947.50;8009497;28;20048;-65
2021/04/08 05:01:57;;;;;;;4.20;2.30;;;;;;;1.99;50.96;101962.16;8000680;28;20040;-64
2021/04/08 05:05:47;;;;;;;5.47;2.85;;;;;;;2.00;50.90;101969.06;8004223;28;20064;-64
2021/04/08 05:09:38;;;;;;;7.63;2.72;;;;;;;2.00;50.96;101969.06;7997878;28;20148;-64
2021/04/08 05:13:29;;;;;;;6.47;2.85;;;;;;;1.94;50.73;101955.31;8002429;28;20489;-64
2021/04/08 05:17:19;;;;;;;4.60;2.90;;;;;;;2.01;50.77;101963.84;7998932;28;20116;-64
2021/04/08 05:21:10;;;;;;;5.75;2.85;;;;;;;2.04;51.13;101968.16;7997863;28;20040;-64
2021/04/08 05:25:01;;;;;;;5.28;2.55;;;;;;;2.04;51.01;101973.34;7997630;28;20056;-64
2021/04/08 05:28:52;;;;;;;6.50;3.78;;;;;;;2.06;51.39;101972.41;7993636;28;20051;-63
2021/04/08 05:32:42;;;;;;;4.88;2.90;;;;;;;2.08;51.04;101972.41;8002290;28;20627;-64
2021/04/08 05:36:33;;;;;;;6.97;3.53;;;;;;;2.10;50.38;101975.81;8009202;28;20124;-64
2021/04/08 05:40:23;;;;;;;4.68;2.92;;;;;;;2.09;50.62;101980.16;8005452;28;20037;-64
2021/04/08 05:44:14;;;;;;;6.05;2.85;;;;;;;2.14;50.64;101980.09;8004915;28;20455;-64
2021/04/08 05:48:05;;;;;;;9.50;3.28;;;;;;;2.17;50.82;101983.50;8002632;28;20090;-65
2021/04/08 05:51:55;;;;;;;5.63;2.63;;;;;;;2.20;50.84;101990.41;8001297;28;20039;-64
2021/04/08 05:55:46;;;;;;;7.05;2.70;;;;;;;2.23;50.45;101991.19;7999154;28;20123;-64
2021/04/08 05:59:37;;;;;;;6.07;2.80;;;;;;;2.26;50.54;101998.06;7998926;28;20068;-64
2021/04/08 06:03:27;;;;;;;10.85;2.92;;;;;;;2.31;50.80;102001.47;7989644;28;20033;-64
2021/04/08 06:07:18;;;;;;;5.95;2.40;;;;;;;2.34;50.46;101999.69;7996846;28;20041;-64
2021/04/08 06:11:09;;;;;;;5.47;2.40;;;;;;;2.40;51.15;102006.53;7995140;28;20064;-64
2021/04/08 06:15:00;;;;;;;5.55;2.50;;;;;;;2.41;50.74;102001.28;7994268;28;20033;-65
2021/04/08 06:18:51;;;;;;;4.25;2.25;;;;;;;2.47;50.73;102000.38;8007274;28;20052;-64
2021/04/08 06:22:42;;;;;;;5.43;2.88;;;;;;;2.54;50.76;101998.53;8002782;28;20124;-63
2021/04/08 06:26:32;;;;;;;5.53;2.80;;;;;;;2.61;50.76;102000.16;8002697;28;20063;-65
2021/04/08 06:30:23;;;;;;;3.63;2.20;;;;;;;2.67;50.98;102000.91;7990425;28;20040;-65
2021/04/08 06:34:14;;;;;;;4.68;1.92;;;;;;;2.72;50.75;102006.91;7997773;28;20029;-64
2021/04/08 06:38:04;;;;;;;4.28;2.30;;;;;;;2.78;50.72;102012.00;8002055;28;20136;-65
2021/04/08 06:41:57;;;;;;;3.65;2.05;;;;;;;2.89;50.62;102014.41;7998435;28;20656;-64
2021/04/08 06:45:52;;;;;;;10.57;1.90;;;;;;;2.96;50.50;102020.34;7989848;28;20037;-64
2021/04/08 06:49:47;;;;;;;3.38;1.95;;;;;;;3.05;50.71;102023.66;8002183;28;20035;-65
2021/04/08 06:53:39;;;;;;;4.50;2.15;;;;;;;3.16;50.66;102026.06;7989871;28;20037;-65
2021/04/08 06:57:30;;;;;;;5.85;2.17;;;;;;;3.27;50.60;102027.63;7997166;28;20032;-64
2021/04/08 07:01:21;;;;;;;5.85;2.83;;;;;;;3.42;50.53;102033.44;8006198;28;20132;-65
2021/04/08 07:05:12;;;;;;;6.30;2.47;;;;;;;3.54;50.46;102043.63;8006546;28;20111;-65
2021/04/08 07:09:05;;;;;;;4.97;2.13;;;;;;;3.67;50.72;102035.56;8004563;28;20105;-65
2021/04/08 07:12:56;;;;;;;6.30;2.60;;;;;;;3.80;50.67;102042.25;8003301;28;20037;-64
2021/04/08 07:16:47;;;;;;;4.72;2.40;;;;;;;3.92;50.90;102041.16;8000295;28;20090;-64
2021/04/08 07:20:38;;;;;;;3.67;2.33;;;;;;;4.04;50.54;102050.44;7999264;28;20043;-64
2021/04/08 07:24:29;;;;;;;4.78;2.40;;;;;;;4.16;50.66;102037.19;7999292;28;20611;-64
2021/04/08 07:28:37;;;;;;;6.20;2.28;;;;;;;4.27;50.26;102053.44;7995944;28;20551;-65
2021/04/08 07:32:33;;;;;;;3.40;2.17;;;;;;;4.30;50.18;102052.50;7996948;28;20524;-64
2021/04/08 07:36:35;;;;;;;3.15;1.85;;;;;;;4.32;50.12;102058.56;7992853;28;20029;-65
2021/04/08 07:40:27;;;;;;;3.42;2.03;;;;;;;4.34;50.08;102056.75;7990892;28;20406;-64
2021/04/08 07:44:18;;;;;;;4.75;2.05;;;;;;;4.38;50.20;102061.88;8004840;28;20030;-64
2021/04/08 07:48:08;;;;;;;5.72;2.30;;;;;;;4.44;50.11;102066.91;8003816;28;20056;-63
2021/04/08 07:52:16;;;;;;;4.97;2.38;;;;;;;4.49;50.08;102065.09;8003360;28;20116;-64
2021/04/08 07:56:30;;;;;;;4.65;2.20;;;;;;;4.54;50.00;102068.44;7993196;28;20412;-64
2021/04/08 08:00:49;;;;;;;4.40;2.60;;;;;;;4.75;50.01;102064.50;7997913;28;20121;-65
2021/04/08 08:04:41;;;;;;;3.60;2.00;;;;;;;5.13;50.25;102066.22;7965795;28;20060;-64
2021/04/08 08:08:35;;;;;;;4.30;2.10;;;;;;;5.61;50.02;102064.13;7960919;28;20045;-64
2021/04/08 08:12:32;;;;;;;5.75;2.58;;;;;;;5.96;49.74;102058.81;7960213;28;20029;-65
2021/04/08 08:16:31;;;;;;;3.58;2.50;;;;;;;6.25;49.45;102071.03;7959225;28;20136;-65
2021/04/08 08:20:22;;;;;;;4.10;1.95;;;;;;;6.56;49.68;102066.59;7961517;28;20033;-65
2021/04/08 08:24:14;;;;;;;3.90;2.28;;;;;;;6.83;49.18;102064.06;7966462;28;20037;-64
2021/04/08 08:28:04;;;;;;;3.35;2.10;;;;;;;7.04;48.80;102068.63;7965997;28;20456;-64
2021/04/08 08:31:57;;;;;;;5.20;2.15;;;;;;;7.28;48.55;102073.03;7958065;28;20575;-64
2021/04/08 08:35:48;;;;;;;4.43;1.98;;;;;;;7.46;48.65;102067.16;7955812;28;20041;-63
2021/04/08 08:39:42;;;;;;;3.83;2.15;;;;;;;7.58;48.46;102058.06;7956959;28;20116;-64
2021/04/08 08:43:33;;;;;;;5.68;2.17;;;;;;;7.64;48.18;102060.47;7961314;28;20513;-64
2021/04/08 08:47:32;;;;;;;3.15;1.83;;;;;;;7.76;47.76;102067.00;7961032;28;20034;-65
2021/04/08 08:51:23;;;;;;;3.67;2.25;;;;;;;8.00;47.76;102073.16;7956691;28;20138;-63
2021/04/08 08:55:17;;;;;;;3.90;1.98;;;;;;;8.28;47.81;102071.25;7951942;28;20042;-64
2021/04/08 08:59:08;;;;;;;3.42;1.77;;;;;;;8.62;47.35;102074.31;7966936;28;20083;-63
2021/04/08 09:03:00;;;;;;;4.00;2.03;;;;;;;8.93;47.13;102065.22;7970526;28;20103;-64
2021/04/08 09:07:13;;;;;;;4.35;1.92;;;;;;;9.17;46.95;102058.97;7972042;28;20553;-64
2021/04/08 09:11:04;;;;;;;4.25;1.83;;;;;;;9.44;46.37;102064.88;7951468;28;20037;-65
2021/04/08 09:15:13;;;;;;;3.67;2.03;;;;;;;9.75;46.38;102070.47;7963049;28;20067;-64
2021/04/08 09:19:06;;;;;;;6.43;2.28;;;;;;;10.06;46.10;102052.47;7962250;28;20045;-63
2021/04/08 09:23:18;;;;;;;3.97;2.08;;;;;;;10.38;45.69;102058.88;7960996;28;20037;-64
2021/04/08 09:27:09;;;;;;;2.65;1.90;;;;;;;10.57;45.30;102064.16;7963566;28;20033;-64
2021/04/08 09:31:09;;;;;;;4.68;1.70;;;;;;;10.66;45.08;102055.81;7961450;28;20053;-65
2021/04/08 09:35:09;;;;;;;4.38;2.03;;;;;;;10.66;44.67;102061.06;7963858;28;20065;-65
2021/04/08 09:38:59;;;;;;;3.75;1.65;;;;;;;10.63;44.40;102050.72;7964213;28;20049;-65
2021/04/08 09:42:55;;;;;;;3.90;2.33;;;;;;;10.59;44.11;102051.78;7961306;28;20073;-64
2021/04/08 09:46:59;;;;;;;8.30;2.13;;;;;;;10.54;43.66;102048.50;7961255;28;20052;-65
2021/04/08 09:51:02;;;;;;;2.17;1.52;;;;;;;10.39;43.51;102044.81;7962863;28;20099;-64
2021/04/08 09:54:57;;;;;;;2.80;1.50;;;;;;;10.14;43.16;102046.88;7955552;28;20477;-64
2021/04/08 09:58:56;;;;;;;2.42;1.63;;;;;;;9.76;42.99;102027.59;7960298;28;20529;-64
2021/04/08 10:03:07;;;;;;;2.60;1.63;;;;;;;9.51;42.80;102035.69;7960795;28;20061;-63
2021/04/08 10:07:05;;;;;;;2.15;1.25;;;;;;;9.25;42.80;102036.75;7962643;28;20037;-65
2021/04/08 10:10:56;;;;;;;2.08;1.40;;;;;;;9.14;42.97;102041.59;7957604;28;20033;-63
2021/04/08 10:14:48;;;;;;;4.15;1.30;;;;;;;9.10;42.75;102026.06;7959240;28;20044;-64
2021/04/08 10:18:40;;;;;;;6.07;1.60;;;;;;;9.13;42.81;102029.41;7959936;28;20068;-65
2021/04/08 10:22:38;;;;;;;2.60;1.67;;;;;;;9.13;42.45;102031.16;7955522;28;20034;-64
2021/04/08 10:26:32;;;;;;;3.58;2.33;;;;;;;9.07;42.47;102032.28;7962020;28;20091;-63
2021/04/08 10:30:24;;;;;;;5.25;2.90;;;;;;;9.10;42.67;102028.69;7960433;28;20032;-64
2021/04/08 10:34:18;;;;;;;2.50;1.70;;;;;;;9.18;42.36;102024.81;7958846;28;20500;-64
2021/04/08 10:38:09;;;;;;;3.30;1.35;;;;;;;9.24;42.21;102027.19;7960450;28;20045;-63
2021/04/08 10:42:02;;;;;;;5.13;1.88;;;;;;;9.17;41.92;102023.09;7959099;28;20432;-64
2021/04/08 10:45:55;;;;;;;2.53;1.52;;;;;;;9.20;41.81;102030.00;7959694;28;20049;-64
2021/04/08 10:49:56;;;;;;;5.30;2.10;;;;;;;9.21;41.84;102024.69;7960870;28;20044;-63
2021/04/08 10:53:47;;;;;;;2.47;1.67;;;;;;;9.26;42.06;102025.34;7960704;28;20396;-64
2021/04/08 10:57:41;;;;;;;1.92;1.50;;;;;;;9.28;41.99;102023.53;7957864;28;20063;-64
2021/04/08 11:01:32;;;;;;;2.50;1.50;;;;;;;9.32;42.06;102027.72;7955288;28;20045;-64
2021/04/08 11:05:25;;;;;;;2.63;1.48;;;;;;;9.32;41.48;102026.88;7956743;28;20037;-64
2021/04/08 11:09:26;;;;;;;4.90;2.10;;;;;;;9.32;41.21;102025.09;7960197;28;20067;-64
2021/04/08 11:13:17;;;;;;;3.90;1.85;;;;;;;9.33;41.47;102025.94;7957102;28;20035;-63
2021/04/08 11:17:08;;;;;;;4.30;2.33;;;;;;;9.33;41.32;102020.69;7957021;28;20049;-64
2021/04/08 11:20:59;;;;;;;3.42;2.10;;;;;;;9.31;40.87;102023.38;7959964;28;20381;-64
2021/04/08 11:24:51;;;;;;;3.55;2.05;;;;;;;9.24;40.63;102032.44;7958171;28;20164;-63
2021/04/08 11:28:42;;;;;;;3.03;1.80;;;;;;;9.16;40.88;102028.44;7959264;28;20535;-63
2021/04/08 11:32:44;;;;;;;4.72;2.03;;;;;;;9.07;40.51;102021.81;7954221;28;20041;-65
2021/04/08 11:36:35;;;;;;;6.35;1.98;;;;;;;9.09;41.00;102022.59;7957604;28;20043;-65
2021/04/08 11:40:25;;;;;;;2.65;2.08;;;;;;;9.13;40.74;102011.03;7956245;28;20647;-65
2021/04/08 11:44:25;;;;;;;5.53;2.05;;;;;;;9.16;40.57;102008.28;7956712;28;20469;-65
2021/04/08 11:48:18;;;;;;;3.63;1.92;;;;;;;9.23;40.66;102006.28;7955718;28;20037;-62
2021/04/08 11:52:10;;;;;;;3.95;2.13;;;;;;;9.28;40.37;102012.19;7957118;28;20037;-65
2021/04/08 11:56:02;;;;;;;4.15;2.35;;;;;;;9.25;40.38;102010.53;7957663;28;20045;-65
2021/04/08 11:59:59;;;;;;;5.78;2.00;;;;;;;9.18;40.35;102003.84;7956851;28;21735;-65
2021/04/08 12:03:51;;;;;;;5.07;2.40;;;;;;;9.11;40.32;101999.78;7955171;28;20052;-65
2021/04/08 12:07:48;;;;;;;3.13;2.10;;;;;;;9.14;40.28;101990.94;7956910;28;20168;-65
2021/04/08 12:11:53;;;;;;;3.38;2.00;;;;;;;9.20;40.13;101994.13;7956909;28;20397;-65
2021/04/08 12:15:46;;;;;;;4.00;1.90;;;;;;;9.25;40.10;101991.31;7956614;28;20038;-63
2021/04/08 12:19:37;;;;;;;3.72;2.60;;;;;;;9.27;40.11;101989.50;7959266;28;20038;-65
2021/04/08 12:23:35;;;;;;;5.32;2.58;;;;;;;9.35;39.61;101984.81;7957256;28;20040;-64
2021/04/08 12:27:26;;;;;;;6.72;2.50;;;;;;;9.40;40.12;101976.75;7957387;28;20037;-64
2021/04/08 12:31:17;;;;;;;4.72;2.30;;;;;;;9.43;39.87;101977.47;7956541;28;20621;-64
2021/04/08 12:35:09;;;;;;;5.10;2.72;;;;;;;9.45;39.91;101975.63;7957742;28;20041;-64
2021/04/08 12:39:00;;;;;;;3.80;2.47;;;;;;;9.45;40.06;101965.13;7962796;28;20560;-65
2021/04/08 12:42:51;;;;;;;4.70;2.45;;;;;;;9.44;39.86;101965.19;7961244;28;20091;-62
2021/04/08 12:46:41;;;;;;;4.22;2.85;;;;;;;9.47;39.96;101960.66;7964369;28;20048;-65
2021/04/08 12:50:32;;;;;;;5.00;2.80;;;;;;;9.48;39.85;101951.03;7964899;28;20033;-65
2021/04/08 12:54:22;;;;;;;4.63;2.80;;;;;;;9.53;39.72;101949.06;7963927;28;20493;-65
2021/04/08 12:58:14;;;;;;;4.85;2.60;;;;;;;9.59;39.67;101948.78;7964503;28;20431;-64
2021/04/08 13:02:05;;;;;;;4.43;2.67;;;;;;;9.60;39.43;101938.22;7963415;28;20049;-63
2021/04/08 13:05:55;;;;;;;4.13;2.58;;;;;;;9.59;39.41;101933.03;7964061;28;20402;-65
2021/04/08 13:09:46;;;;;;;3.30;2.53;;;;;;;9.57;39.25;101932.25;7964857;28;20521;-64
2021/04/08 13:13:37;;;;;;;3.65;2.88;;;;;;;9.54;39.57;101924.50;7960235;28;20140;-64
2021/04/08 13:17:28;;;;;;;7.63;3.67;;;;;;;9.61;39.34;101923.34;7963683;28;20447;-64
2021/04/08 13:21:18;;;;;;;4.88;3.00;;;;;;;9.66;39.17;101921.31;7943432;28;20036;-64
2021/04/08 13:25:10;;;;;;;5.32;3.58;;;;;;;9.59;39.17;101907.66;7963231;28;20037;-64
2021/04/08 13:29:01;;;;;;;4.55;2.95;;;;;;;9.60;39.06;101911.97;7962808;28;20040;-63
2021/04/08 13:32:51;;;;;;;4.65;3.13;;;;;;;9.58;38.87;101907.72;7961456;28;20038;-64
2021/04/08 13:36:42;;;;;;;8.15;3.67;;;;;;;9.57;38.92;101903.41;7962561;28;20041;-65
2021/04/08 13:40:32;;;;;;;4.07;3.08;;;;;;;9.54;38.68;101898.28;7961067;28;20060;-64
2021/04/08 13:44:23;;;;;;;3.92;3.08;;;;;;;9.49;39.02;101887.16;7965002;28;20029;-65
2021/04/08 13:48:14;;;;;;;4.60;2.97;;;;;;;9.48;38.62;101890.69;7960537;28;21675;-65
2021/04/08 13:52:05;;;;;;;3.40;3.00;;;;;;;9.48;38.81;101874.97;7960937;28;20045;-64
2021/04/08 13:55:56;;;;;;;9.52;3.65;;;;;;;9.50;38.79;101880.97;7961394;28;20037;-65
2021/04/08 13:59:47;;;;;;;5.43;3.17;;;;;;;9.50;38.65;101876.59;7962189;28;20056;-64
2021/04/08 14:03:37;;;;;;;4.85;3.33;;;;;;;9.49;38.60;101884.53;7961101;28;20728;-64
2021/04/08 14:07:28;;;;;;;6.63;3.30;;;;;;;9.47;38.48;101865.38;7959595;28;20598;-65
2021/04/08 14:11:19;;;;;;;5.60;3.33;;;;;;;9.41;38.50;101866.50;7955648;28;20091;-64
2021/04/08 14:15:10;;;;;;;7.88;3.25;;;;;;;9.40;38.27;101866.59;7959264;28;20464;-62
2021/04/08 14:19:03;;;;;;;5.43;2.90;;;;;;;9.37;38.22;101870.19;7960102;28;20091;-63
2021/04/08 14:22:54;;;;;;;7.18;4.03;;;;;;;9.37;38.49;101864.13;7959930;28;20093;-65
2021/04/08 14:26:45;;;;;;;4.70;2.90;;;;;;;9.34;38.54;101851.94;7961862;28;20025;-64
2021/04/08 14:30:35;;;;;;;6.90;3.05;;;;;;;9.33;38.34;101856.34;7961911;28;20067;-65
2021/04/08 14:34:26;;;;;;;9.10;3.22;;;;;;;9.31;38.43;101841.59;7960351;28;20026;-64
2021/04/08 14:38:17;;;;;;;6.18;3.75;;;;;;;9.26;37.99;101841.81;7960630;28;20575;-63
2021/04/08 14:42:08;;;;;;;8.20;3.15;;;;;;;9.16;38.00;101830.03;7958568;28;20089;-65
2021/04/08 14:45:58;;;;;;;6.18;3.65;;;;;;;9.11;37.98;101829.41;7959246;28;20095;-64
2021/04/08 14:49:49;;;;;;;9.02;3.45;;;;;;;9.06;38.33;101820.88;7962417;28;20041;-64
2021/04/08 14:53:40;;;;;;;7.13;3.25;;;;;;;9.02;37.93;101816.69;7959825;28;20045;-63
2021/04/08 14:57:30;;;;;;;4.40;3.30;;;;;;;9.03;38.05;101813.16;7959422;28;20029;-65
2021/04/08 15:01:21;;;;;;;6.07;3.63;;;;;;;9.03;37.91;101815.78;7959053;28;20537;-64
2021/04/08 15:05:16;;;;;;;3.92;3.00;;;;;;;9.04;37.84;101816.66;7961525;28;20034;-64
2021/04/08 15:09:08;;;;;;;4.60;3.30;;;;;;;9.03;37.70;101807.94;7961404;28;20068;-63
2021/04/08 15:12:59;;;;;;;4.45;2.97;;;;;;;8.96;37.65;101810.88;7953116;28;20044;-64
2021/04/08 15:16:49;;;;;;;4.95;3.38;;;;;;;8.88;37.79;101814.69;7956404;28;20041;-64
2021/04/08 15:20:40;;;;;;;6.75;3.65;;;;;;;8.85;37.92;101801.72;7961634;28;20034;-64
2021/04/08 15:24:31;;;;;;;7.15;3.30;;;;;;;8.83;38.07;101794.88;7961511;28;20037;-64
2021/04/08 15:28:23;;;;;;;5.70;3.88;;;;;;;8.82;37.78;101783.53;7959985;28;20037;-63
2021/04/08 15:32:15;;;;;;;4.70;3.50;;;;;;;8.86;38.05;101781.63;7956609;28;20069;-64
2021/04/08 15:36:07;;;;;;;4.47;3.22;;;;;;;8.91;37.77;101773.56;7959176;28;20049;-64
2021/04/08 15:39:58;;;;;;;12.07;3.78;;;;;;;8.88;37.78;101778.00;7958015;28;20038;-63
2021/04/08 15:43:48;;;;;;;7.57;3.50;;;;;;;8.83;37.55;101771.28;7956091;28;20397;-64
2021/04/08 15:47:39;;;;;;;5.90;3.83;;;;;;;8.80;37.74;101760.91;7959325;28;20041;-64
2021/04/08 15:51:30;;;;;;;5.97;3.75;;;;;;;8.73;37.49;101760.34;7960066;28;20041;-65
2021/04/08 15:55:21;;;;;;;7.28;4.30;;;;;;;8.68;37.19;101766.69;7960095;28;20520;-62
2021/04/08 15:59:11;;;;;;;4.55;3.50;;;;;;;8.60;37.76;101766.19;7959543;28;20045;-64
2021/04/08 16:03:03;;;;;;;4.97;3.50;;;;;;;8.51;37.66;101762.19;7958552;28;20049;-65
2021/04/08 16:06:55;;;;;;;5.90;3.88;;;;;;;8.44;37.83;101752.91;7958865;28;20083;-64
2021/04/08 16:10:45;;;;;;;4.00;3.22;;;;;;;8.44;37.92;101752.06;7957364;28;20033;-63
2021/04/08 16:14:36;;;;;;;7.20;3.85;;;;;;;8.42;37.53;101751.28;7959652;28;20092;-64
2021/04/08 16:18:26;;;;;;;5.65;3.92;;;;;;;8.39;37.82;101742.63;7960060;28;20049;-65
2021/04/08 16:22:17;;;;;;;8.77;4.47;;;;;;;8.36;37.70;101737.53;7956999;28;20034;-64
2021/04/08 16:26:08;;;;;;;5.13;3.53;;;;;;;8.38;37.70;101726.97;7958810;28;20045;-63
2021/04/08 16:29:59;;;;;;;7.30;3.53;;;;;;;8.26;37.46;101717.03;7958231;28;20033;-62
2021/04/08 16:33:49;;;;;;;5.35;3.50;;;;;;;8.29;37.83;101736.06;7957029;28;20077;-62
2021/04/08 16:37:43;;;;;;;5.90;3.72;;;;;;;8.27;37.80;101726.59;7957807;28;20095;-64
2021/04/08 16:41:34;;;;;;;6.53;3.40;;;;;;;8.25;37.38;101725.84;7955102;28;20507;-63
2021/04/08 16:45:25;;;;;;;7.43;3.45;;;;;;;8.22;37.82;101724.19;7954927;28;20036;-62
2021/04/08 16:49:15;;;;;;;4.88;2.92;;;;;;;8.19;37.75;101718.22;7955536;28;20037;-62
2021/04/08 16:53:07;;;;;;;7.78;3.33;;;;;;;8.18;37.81;101716.53;7955382;28;20478;-63
2021/04/08 16:56:57;;;;;;;6.78;3.20;;;;;;;8.12;37.66;101719.41;7956845;28;20052;-63
2021/04/08 17:00:48;;;;;;;5.80;3.72;;;;;;;8.08;37.65;101715.19;7956703;28;20052;-61
2021/04/08 17:04:39;;;;;;;5.50;3.25;;;;;;;8.04;37.58;101714.47;7957421;28;20041;-62
2021/04/08 17:08:29;;;;;;;7.55;3.50;;;;;;;8.01;37.67;101716.34;7958155;28;20067;-63
2021/04/08 17:12:20;;;;;;;6.25;3.50;;;;;;;7.91;37.89;101697.59;7954855;28;20033;-63
2021/04/08 17:16:11;;;;;;;6.93;3.00;;;;;;;7.93;37.50;101712.28;7954109;28;20096;-63
2021/04/08 17:20:07;;;;;;;7.13;3.20;;;;;;;7.87;37.80;101701.25;7958962;28;20033;-61
2021/04/08 17:23:58;;;;;;;5.07;2.83;;;;;;;7.83;37.77;101699.66;7955971;28;20036;-62
2021/04/08 17:27:49;;;;;;;4.80;2.63;;;;;;;7.83;37.89;101694.44;7960703;28;20041;-63
2021/04/08 17:31:39;;;;;;;5.65;2.63;;;;;;;7.82;37.64;101687.50;7960907;28;20071;-65
2021/04/08 17:35:30;;;;;;;5.70;2.70;;;;;;;7.72;37.48;101668.72;7961705;28;20116;-72
2021/04/08 17:39:21;;;;;;;4.75;2.63;;;;;;;7.79;37.75;101679.78;7963176;28;20034;-70
2021/04/08 17:43:11;;;;;;;5.85;3.20;;;;;;;7.76;37.43;101685.13;7956069;28;20056;-67
2021/04/08 17:47:02;;;;;;;4.55;2.75;;;;;;;7.75;37.53;101686.06;7960550;28;20051;-68
2021/04/08 17:50:52;;;;;;;5.57;3.13;;;;;;;7.73;38.01;101680.88;7963229;28;20249;-66
2021/04/08 17:54:43;;;;;;;7.43;2.97;;;;;;;7.70;38.45;101673.16;7959540;28;20374;-67
2021/04/08 17:58:34;;;;;;;5.13;2.65;;;;;;;7.68;38.21;101663.66;7960237;28;20034;-69
2021/04/08 18:02:25;;;;;;;7.47;3.05;;;;;;;7.62;38.23;101656.09;7960011;28;20572;-68
2021/04/08 18:06:16;;;;;;;7.72;3.85;;;;;;;7.55;38.38;101650.25;7962285;28;20508;-66
2021/04/08 18:10:07;;;;;;;9.18;3.50;;;;;;;7.49;38.37;101646.13;7959872;28;20041;-66
2021/04/08 18:13:58;;;;;;;4.80;2.83;;;;;;;7.40;38.89;101643.91;7958994;28;20127;-66
2021/04/08 18:17:49;;;;;;;6.95;3.00;;;;;;;7.32;38.50;101635.50;7959446;28;20049;-68